Plymouth, Washington
Current Conditions -  °F | °C
As of 10:53 AM on Thursday 30 Oct 2014 (Local Time) from KHRI Reporting Station
Overcast Overcast  
Wind Chill: 54°   Ceiling: 8500
Heat Index: 54°   Visibility: 10mi
Dew Point: 49°   Wind: 7mph
Humidity: 83%   Direction: 20°NNE
Pressure: 30.01"   Gusts: NA
Location:  45.93°N, 119.35°W
Report Text: KHRI 301753Z AUTO 02006KT 10SM OVC085 12/09 A3001 RMK AO2 SLP160 60001 T01220094 10122 20111 58009
Loading
Personal Weather Stations






























Interactive Weather Map
Tropical Storm Tracking
New forecast layout! Learn more

10-Day Weather Forecast

Advertisements
Track Severe Weather on mobile